Ever Ursula — 3FCB9 — position and weather

sailwx.info

Track history (hours):
 
Tides and Currents Weather Stations Pressure Air Temp Water Temp Dewpoint Dewpoint Depression Visibility Wind Speed Wind Dir Waves Ship Positions

Ever Ursula

Last reported at 2014-Aug-30 20:31 UTC. Time now 2014-Aug-30 20:36 UTC.
Position N 38°59' E 117°47'.

Type: Ship (hazmat cat D). MMSI: 357737000.

Date/timePositionNaut miles runAvg speedWind from/ knotsBaromVisibWave heightAir tempDewpointWater temp
2014-Aug-30 20:31N 38°59' E 117°47'0 0.0
2014-Aug-30 19:31N 38°59' E 117°47'0 0.0
2014-Aug-30 18:31N 38°59' E 117°47'0 0.0
2014-Aug-30 17:31N 38°60' E 117°47'0 0.0
2014-Aug-30 16:28N 38°59' E 117°47'0 0.0
2014-Aug-30 15:31N 38°60' E 117°47'0 0.0
2014-Aug-30 14:31N 38°59' E 117°47'0 0.0
2014-Aug-30 13:31N 38°59' E 117°47'0 0.0
2014-Aug-30 12:31N 38°60' E 117°47'5 5.6
2014-Aug-30 11:33N 38°57' E 117°54'8 8.3
2014-Aug-30 10:33N 38°57' E 118°04'0 0.1
2014-Aug-30 09:33N 38°57' E 118°04'3 3.2
2014-Aug-30 08:33N 38°54' E 118°06'2 1.1
2014-Aug-30 07:06N 38°53' E 118°06'0 0.0
2014-Aug-30 06:33N 38°53' E 118°06'0 0.0
2014-Aug-30 05:30N 38°53' E 118°06'0 0.1
2014-Aug-30 04:33N 38°53' E 118°06'0 0.2
2014-Aug-30 03:27N 38°53' E 118°06'0 0.1
2014-Aug-30 02:30N 38°53' E 118°06'0 0.1
2014-Aug-30 01:33N 38°53' E 118°06'0 0.0
2014-Aug-30 00:30N 38°53' E 118°06'0 0.1
2014-Aug-29 23:33N 38°53' E 118°06'0 0.2
2014-Aug-29 22:33N 38°53' E 118°06'0 0.1
2014-Aug-29 21:33N 38°53' E 118°06'0 0.0
2014-Aug-29 20:30N 38°53' E 118°06'0 0.1
2014-Aug-29 19:30N 38°53' E 118°06'0 0.0
2014-Aug-29 18:24N 38°53' E 118°06'0 0.1
2014-Aug-29 17:33N 38°53' E 118°06'0 0.1
2014-Aug-29 16:26N 38°53' E 118°06'0 0.2
2014-Aug-29 15:29N 38°53' E 118°06'0 0.1
2014-Aug-29 14:32N 38°53' E 118°06'0 0.0
2014-Aug-29 13:32N 38°53' E 118°06'0 0.0
2014-Aug-29 12:32N 38°53' E 118°06'0 0.1
2014-Aug-29 11:26N 38°53' E 118°06'0 0.2
2014-Aug-29 10:26N 38°53' E 118°06'0 0.1
2014-Aug-29 09:31N 38°53' E 118°06'0 0.0
2014-Aug-29 08:31N 38°53' E 118°06'0 0.0
2014-Aug-29 07:28N 38°53' E 118°06'0 0.0
2014-Aug-29 06:19N 38°53' E 118°06'0 0.0
2014-Aug-29 05:31N 38°53' E 118°06'0 0.0
2014-Aug-29 04:31N 38°53' E 118°06'0 0.0
2014-Aug-29 03:32N 38°53' E 118°06'0 0.2
2014-Aug-29 02:26N 38°53' E 118°06'0 0.0
2014-Aug-29 01:32N 38°53' E 118°06'0 0.0
2014-Aug-29 00:29N 38°53' E 118°06'0 0.0
2014-Aug-28 23:32N 38°53' E 118°06'0 0.0
2014-Aug-28 22:32N 38°53' E 118°06'0 0.0
2014-Aug-28 21:32N 38°53' E 118°06'0 0.0
2014-Aug-28 20:23N 38°53' E 118°06'0 0.1
2014-Aug-28 19:17N 38°53' E 118°06'0 0.1
2014-Aug-28 18:29N 38°53' E 118°06'0 0.1
2014-Aug-28 17:32N 38°53' E 118°06'0 0.1
2014-Aug-28 16:29N 38°53' E 118°06'0 0.2
2014-Aug-28 15:29N 38°53' E 118°06'0 0.1
2014-Aug-28 14:14N 38°53' E 118°06'0 0.0
2014-Aug-28 13:21N 38°53' E 118°06'0 0.0
2014-Aug-28 12:31N 38°53' E 118°06'0 0.0
2014-Aug-28 11:31N 38°53' E 118°06'0 0.1
2014-Aug-28 10:31N 38°53' E 118°06'0 0.1
2014-Aug-28 09:31N 38°53' E 118°06'0 0.1
2014-Aug-28 08:31N 38°53' E 118°06'0 0.0
2014-Aug-28 07:28N 38°53' E 118°06'0 0.0
2014-Aug-28 06:13N 38°53' E 118°06'0 0.1
2014-Aug-28 05:13N 38°53' E 118°06'0 0.0
2014-Aug-28 04:31N 38°53' E 118°06'0 0.2
2014-Aug-28 03:31N 38°53' E 118°06'0 0.1
2014-Aug-28 02:31N 38°53' E 118°06'0 0.0
2014-Aug-28 01:31N 38°53' E 118°06'0 0.0
2014-Aug-28 00:31N 38°53' E 118°06'0 0.0
2014-Aug-27 23:31N 38°53' E 118°06'0 0.0
2014-Aug-27 22:31N 38°53' E 118°06'0 0.2
2014-Aug-27 21:16N 38°53' E 118°06'0 0.1
2014-Aug-27 20:25N 38°53' E 118°06'0 0.0
2014-Aug-27 19:25N 38°53' E 118°06'0 0.0
2014-Aug-27 18:28N 38°53' E 118°06'0 0.0
2014-Aug-27 17:25N 38°53' E 118°06'0 0.0
2014-Aug-27 16:31N 38°53' E 118°06'0 0.1
2014-Aug-27 15:31N 38°53' E 118°06'0 0.2
2014-Aug-27 14:31N 38°53' E 118°06'0 0.0
2014-Aug-27 13:25N 38°53' E 118°06'0 0.0
2014-Aug-27 12:31N 38°53' E 118°06'0 0.0
2014-Aug-27 11:28N 38°53' E 118°06'0 0.0
2014-Aug-27 10:31N 38°53' E 118°06'0 0.1
2014-Aug-27 09:31N 38°53' E 118°06'0 0.1
2014-Aug-27 08:28N 38°53' E 118°06'4 4.4
2014-Aug-27 07:34N 38°52' E 118°11'1313.3
2014-Aug-27 06:33N 38°50' E 118°28'1817.7
2014-Aug-27 05:33N 38°48' E 118°50'1413.5
2014-Aug-27 04:33N 38°47' E 119°08'1615.1
2014-Aug-27 03:31N 38°45' E 119°28'1414.7
2014-Aug-27 02:33N 38°43' E 119°46'2418.8
2014-Aug-27 01:15N 38°40' E 120°17'1419.4
2014-Aug-27 00:32N 38°38' E 120°35'1514.7
2014-Aug-26 23:31N 38°36' E 120°53'1212.5
2014-Aug-26 22:33N 38°31' E 121°08'1413.3
2014-Aug-26 21:28N 38°23' E 121°23'1313.3
2014-Aug-26 20:32N 38°17' E 121°37'1313.6
2014-Aug-26 19:33N 38°11' E 121°52'1313.5
2014-Aug-26 18:33N 38°04' E 122°07'1412.9
2014-Aug-26 17:29N 37°58' E 122°22'1212.4
2014-Aug-26 16:33N 37°53' E 122°35'1312.7
2014-Aug-26 15:32N 37°41' E 122°43'1312.8
2014-Aug-26 14:32N 37°30' E 122°51'1313.1
2014-Aug-26 13:33N 37°17' E 122°53'1414.4
2014-Aug-26 12:34N 37°03' E 122°51'1515.1
2014-Aug-26 11:34N 36°48' E 122°52'34513.6
2014-Aug-25 10:14N 31°03' E 122°55'912.5
2014-Aug-25 09:32N 30°55' E 122°56'1312.2
2014-Aug-25 08:30N 30°42' E 122°56'1010.7
2014-Aug-25 07:33N 30°34' E 122°49'1413.7
2014-Aug-25 06:33N 30°31' E 122°34'1211.6
2014-Aug-25 05:33N 30°29' E 122°20'1 0.6
2014-Aug-25 04:28N 30°29' E 122°20'0 0.3
2014-Aug-25 03:28N 30°29' E 122°19'0 0.0
2014-Aug-25 02:28N 30°29' E 122°19'0 0.0
2014-Aug-25 01:28N 30°29' E 122°19'0 0.0
2014-Aug-25 00:22N 30°29' E 122°19'0 0.0
2014-Aug-24 23:28N 30°29' E 122°19'0 0.2
2014-Aug-24 22:29N 30°29' E 122°20'3 2.7
2014-Aug-24 21:32N 30°29' E 122°17'0 0.0
2014-Aug-24 20:26N 30°29' E 122°17'0 0.0
2014-Aug-24 19:33N 30°29' E 122°17'0 0.0
2014-Aug-24 18:33N 30°29' E 122°17'0 0.0
2014-Aug-24 17:26N 30°29' E 122°17'0 0.0
2014-Aug-24 16:33N 30°29' E 122°17'0 0.0
2014-Aug-24 15:26N 30°29' E 122°17'0 0.0
2014-Aug-24 14:32N 30°29' E 122°17'0 0.0
2014-Aug-24 13:32N 30°29' E 122°17'0 0.0
2014-Aug-24 12:20N 30°29' E 122°17'0 0.0
2014-Aug-24 11:32N 30°29' E 122°17'0 0.0
2014-Aug-24 10:32N 30°29' E 122°17'0 0.0
2014-Aug-24 09:32N 30°29' E 122°17'0 0.0
2014-Aug-24 08:26N 30°29' E 122°17'0 0.0
2014-Aug-24 07:26N 30°29' E 122°17'0 0.0
2014-Aug-24 06:33N 30°29' E 122°17'0 0.0
2014-Aug-24 05:26N 30°29' E 122°17'0 0.0
2014-Aug-24 04:31N 30°29' E 122°17'0 0.0
2014-Aug-24 03:25N 30°29' E 122°17'0 0.0
2014-Aug-24 02:31N 30°29' E 122°17'0 0.0
2014-Aug-24 01:19N 30°29' E 122°17'0 0.0
2014-Aug-24 00:31N 30°29' E 122°17'0 0.0
2014-Aug-23 23:31N 30°29' E 122°17'0 0.0
2014-Aug-23 22:31N 30°29' E 122°17'0 0.0
2014-Aug-23 21:25N 30°29' E 122°17'0 0.0
2014-Aug-23 20:25N 30°29' E 122°17'0 0.0
2014-Aug-23 19:13N 30°29' E 122°17'0 0.0
2014-Aug-23 00:30N 30°29' E 122°17'0 0.0
2014-Aug-22 23:24N 30°29' E 122°17'0 0.0
2014-Aug-22 22:24N 30°29' E 122°17'0 0.0
2014-Aug-22 21:12N 30°29' E 122°17'0 0.0
2014-Aug-22 20:30N 30°29' E 122°17'0 0.1
2014-Aug-22 19:30N 30°29' E 122°17'0 0.1
2014-Aug-22 18:30N 30°29' E 122°17'0 0.0
2014-Aug-22 17:24N 30°29' E 122°17'0 0.0
2014-Aug-22 16:30N 30°29' E 122°17'0 0.0
2014-Aug-22 15:30N 30°29' E 122°17'0 0.0
2014-Aug-22 13:30N 30°29' E 122°17'0 0.0
2014-Aug-22 12:30N 30°29' E 122°17'0 0.0
2014-Aug-22 11:30N 30°29' E 122°17'0 0.0
2014-Aug-22 10:30N 30°29' E 122°17'0 0.0
2014-Aug-22 09:30N 30°29' E 122°17'0 0.0
2014-Aug-22 08:24N 30°29' E 122°17'0 0.0
2014-Aug-22 07:30N 30°29' E 122°17'0 0.0
2014-Aug-22 06:30N 30°29' E 122°17'0 0.0
2014-Aug-22 05:30N 30°29' E 122°17'0 0.0
2014-Aug-22 04:24N 30°29' E 122°17'0 0.0
2014-Aug-22 03:30N 30°29' E 122°17'0 0.0
2014-Aug-22 02:30N 30°29' E 122°17'0 0.0
2014-Aug-22 01:30N 30°29' E 122°17'0 0.0
2014-Aug-22 00:06N 30°29' E 122°17'0 0.0
2014-Aug-21 23:30N 30°29' E 122°17'0 0.0
2014-Aug-21 22:24N 30°29' E 122°17'0 0.0
2014-Aug-21 21:18N 30°29' E 122°17'0 0.0
2014-Aug-21 20:30N 30°29' E 122°17'0 0.0
2014-Aug-21 19:30N 30°29' E 122°17'0 0.0
2014-Aug-21 18:12N 30°29' E 122°17'0 0.0
2014-Aug-21 17:30N 30°29' E 122°17'0 0.0
2014-Aug-21 16:30N 30°29' E 122°17'0 0.0
2014-Aug-21 15:30N 30°29' E 122°17'0 0.0
2014-Aug-21 14:30N 30°29' E 122°17'0 0.0
2014-Aug-21 13:06N 30°29' E 122°17'0 0.0
2014-Aug-21 12:18N 30°29' E 122°17'0 0.0
2014-Aug-21 11:24N 30°29' E 122°17'0 0.0
2014-Aug-21 10:30N 30°29' E 122°17'0 0.0
2014-Aug-21 09:30N 30°29' E 122°17'0 0.0
2014-Aug-21 08:18N 30°29' E 122°17'0 0.0
2014-Aug-21 07:24N 30°29' E 122°17'0 0.0
2014-Aug-21 06:30N 30°29' E 122°17'0 0.0
2014-Aug-21 05:06N 30°29' E 122°17'0 0.0
2014-Aug-21 04:30N 30°29' E 122°17'0 0.0
2014-Aug-21 03:18N 30°29' E 122°17'0 0.0
2014-Aug-21 02:24N 30°29' E 122°17'0 0.0
2014-Aug-21 01:18N 30°29' E 122°17'0 0.0
2014-Aug-21 00:30N 30°29' E 122°17'0 0.0
2014-Aug-20 23:18N 30°29' E 122°17'0 0.0
2014-Aug-20 22:30N 30°29' E 122°17'0 0.0
2014-Aug-20 21:24N 30°29' E 122°17'  
Track history (hours):
 
Tides and Currents Weather Stations Pressure Air Temp Water Temp Dewpoint Dewpoint Depression Visibility Wind Speed Wind Dir Waves Ship Positions

Ever Ursula

Last reported at 2014-Aug-30 20:31 UTC. Time now 2014-Aug-30 20:36 UTC.
Position N 38°59' E 117°47'.

Type: Ship (hazmat cat D). MMSI: 357737000.

Date/timePositionNaut miles runAvg speedWind from/ knotsBaromVisibWave heightAir tempDewpointWater temp
2014-Aug-30 20:31N 38°59' E 117°47'0 0.0
2014-Aug-30 19:31N 38°59' E 117°47'0 0.0
2014-Aug-30 18:31N 38°59' E 117°47'0 0.0
2014-Aug-30 17:31N 38°60' E 117°47'0 0.0
2014-Aug-30 16:28N 38°59' E 117°47'0 0.0
2014-Aug-30 15:31N 38°60' E 117°47'0 0.0
2014-Aug-30 14:31N 38°59' E 117°47'0 0.0
2014-Aug-30 13:31N 38°59' E 117°47'0 0.0
2014-Aug-30 12:31N 38°60' E 117°47'5 5.6
2014-Aug-30 11:33N 38°57' E 117°54'8 8.3
2014-Aug-30 10:33N 38°57' E 118°04'0 0.1
2014-Aug-30 09:33N 38°57' E 118°04'3 3.2
2014-Aug-30 08:33N 38°54' E 118°06'2 1.1
2014-Aug-30 07:06N 38°53' E 118°06'0 0.0
2014-Aug-30 06:33N 38°53' E 118°06'0 0.0
2014-Aug-30 05:30N 38°53' E 118°06'0 0.1
2014-Aug-30 04:33N 38°53' E 118°06'0 0.2
2014-Aug-30 03:27N 38°53' E 118°06'0 0.1
2014-Aug-30 02:30N 38°53' E 118°06'0 0.1
2014-Aug-30 01:33N 38°53' E 118°06'0 0.0
2014-Aug-30 00:30N 38°53' E 118°06'0 0.1
2014-Aug-29 23:33N 38°53' E 118°06'0 0.2
2014-Aug-29 22:33N 38°53' E 118°06'0 0.1
2014-Aug-29 21:33N 38°53' E 118°06'0 0.0
2014-Aug-29 20:30N 38°53' E 118°06'0 0.1
2014-Aug-29 19:30N 38°53' E 118°06'0 0.0
2014-Aug-29 18:24N 38°53' E 118°06'0 0.1
2014-Aug-29 17:33N 38°53' E 118°06'0 0.1
2014-Aug-29 16:26N 38°53' E 118°06'0 0.2
2014-Aug-29 15:29N 38°53' E 118°06'0 0.1
2014-Aug-29 14:32N 38°53' E 118°06'0 0.0
2014-Aug-29 13:32N 38°53' E 118°06'0 0.0
2014-Aug-29 12:32N 38°53' E 118°06'0 0.1
2014-Aug-29 11:26N 38°53' E 118°06'0 0.2
2014-Aug-29 10:26N 38°53' E 118°06'0 0.1
2014-Aug-29 09:31N 38°53' E 118°06'0 0.0
2014-Aug-29 08:31N 38°53' E 118°06'0 0.0
2014-Aug-29 07:28N 38°53' E 118°06'0 0.0
2014-Aug-29 06:19N 38°53' E 118°06'0 0.0
2014-Aug-29 05:31N 38°53' E 118°06'0 0.0
2014-Aug-29 04:31N 38°53' E 118°06'0 0.0
2014-Aug-29 03:32N 38°53' E 118°06'0 0.2
2014-Aug-29 02:26N 38°53' E 118°06'0 0.0
2014-Aug-29 01:32N 38°53' E 118°06'0 0.0
2014-Aug-29 00:29N 38°53' E 118°06'0 0.0
2014-Aug-28 23:32N 38°53' E 118°06'0 0.0
2014-Aug-28 22:32N 38°53' E 118°06'0 0.0
2014-Aug-28 21:32N 38°53' E 118°06'0 0.0
2014-Aug-28 20:23N 38°53' E 118°06'0 0.1
2014-Aug-28 19:17N 38°53' E 118°06'0 0.1
2014-Aug-28 18:29N 38°53' E 118°06'0 0.1
2014-Aug-28 17:32N 38°53' E 118°06'0 0.1
2014-Aug-28 16:29N 38°53' E 118°06'0 0.2
2014-Aug-28 15:29N 38°53' E 118°06'0 0.1
2014-Aug-28 14:14N 38°53' E 118°06'0 0.0
2014-Aug-28 13:21N 38°53' E 118°06'0 0.0
2014-Aug-28 12:31N 38°53' E 118°06'0 0.0
2014-Aug-28 11:31N 38°53' E 118°06'0 0.1
2014-Aug-28 10:31N 38°53' E 118°06'0 0.1
2014-Aug-28 09:31N 38°53' E 118°06'0 0.1
2014-Aug-28 08:31N 38°53' E 118°06'0 0.0
2014-Aug-28 07:28N 38°53' E 118°06'0 0.0
2014-Aug-28 06:13N 38°53' E 118°06'0 0.1
2014-Aug-28 05:13N 38°53' E 118°06'0 0.0
2014-Aug-28 04:31N 38°53' E 118°06'0 0.2
2014-Aug-28 03:31N 38°53' E 118°06'0 0.1
2014-Aug-28 02:31N 38°53' E 118°06'0 0.0
2014-Aug-28 01:31N 38°53' E 118°06'0 0.0
2014-Aug-28 00:31N 38°53' E 118°06'0 0.0
2014-Aug-27 23:31N 38°53' E 118°06'0 0.0
2014-Aug-27 22:31N 38°53' E 118°06'0 0.2
2014-Aug-27 21:16N 38°53' E 118°06'0 0.1
2014-Aug-27 20:25N 38°53' E 118°06'0 0.0
2014-Aug-27 19:25N 38°53' E 118°06'0 0.0
2014-Aug-27 18:28N 38°53' E 118°06'0 0.0
2014-Aug-27 17:25N 38°53' E 118°06'0 0.0
2014-Aug-27 16:31N 38°53' E 118°06'0 0.1
2014-Aug-27 15:31N 38°53' E 118°06'0 0.2
2014-Aug-27 14:31N 38°53' E 118°06'0 0.0
2014-Aug-27 13:25N 38°53' E 118°06'0 0.0
2014-Aug-27 12:31N 38°53' E 118°06'0 0.0
2014-Aug-27 11:28N 38°53' E 118°06'0 0.0
2014-Aug-27 10:31N 38°53' E 118°06'0 0.1
2014-Aug-27 09:31N 38°53' E 118°06'0 0.1
2014-Aug-27 08:28N 38°53' E 118°06'4 4.4
2014-Aug-27 07:34N 38°52' E 118°11'1313.3
2014-Aug-27 06:33N 38°50' E 118°28'1817.7
2014-Aug-27 05:33N 38°48' E 118°50'1413.5
2014-Aug-27 04:33N 38°47' E 119°08'1615.1
2014-Aug-27 03:31N 38°45' E 119°28'1414.7
2014-Aug-27 02:33N 38°43' E 119°46'2418.8
2014-Aug-27 01:15N 38°40' E 120°17'1419.4
2014-Aug-27 00:32N 38°38' E 120°35'1514.7
2014-Aug-26 23:31N 38°36' E 120°53'1212.5
2014-Aug-26 22:33N 38°31' E 121°08'1413.3
2014-Aug-26 21:28N 38°23' E 121°23'1313.3
2014-Aug-26 20:32N 38°17' E 121°37'1313.6
2014-Aug-26 19:33N 38°11' E 121°52'1313.5
2014-Aug-26 18:33N 38°04' E 122°07'1412.9
2014-Aug-26 17:29N 37°58' E 122°22'1212.4
2014-Aug-26 16:33N 37°53' E 122°35'1312.7
2014-Aug-26 15:32N 37°41' E 122°43'1312.8
2014-Aug-26 14:32N 37°30' E 122°51'1313.1
2014-Aug-26 13:33N 37°17' E 122°53'1414.4
2014-Aug-26 12:34N 37°03' E 122°51'1515.1
2014-Aug-26 11:34N 36°48' E 122°52'34513.6
2014-Aug-25 10:14N 31°03' E 122°55'912.5
2014-Aug-25 09:32N 30°55' E 122°56'1312.2
2014-Aug-25 08:30N 30°42' E 122°56'1010.7
2014-Aug-25 07:33N 30°34' E 122°49'1413.7
2014-Aug-25 06:33N 30°31' E 122°34'1211.6
2014-Aug-25 05:33N 30°29' E 122°20'1 0.6
2014-Aug-25 04:28N 30°29' E 122°20'0 0.3
2014-Aug-25 03:28N 30°29' E 122°19'0 0.0
2014-Aug-25 02:28N 30°29' E 122°19'0 0.0
2014-Aug-25 01:28N 30°29' E 122°19'0 0.0
2014-Aug-25 00:22N 30°29' E 122°19'0 0.0
2014-Aug-24 23:28N 30°29' E 122°19'0 0.2
2014-Aug-24 22:29N 30°29' E 122°20'3 2.7
2014-Aug-24 21:32N 30°29' E 122°17'0 0.0
2014-Aug-24 20:26N 30°29' E 122°17'0 0.0
2014-Aug-24 19:33N 30°29' E 122°17'0 0.0
2014-Aug-24 18:33N 30°29' E 122°17'0 0.0
2014-Aug-24 17:26N 30°29' E 122°17'0 0.0
2014-Aug-24 16:33N 30°29' E 122°17'0 0.0
2014-Aug-24 15:26N 30°29' E 122°17'0 0.0
2014-Aug-24 14:32N 30°29' E 122°17'0 0.0
2014-Aug-24 13:32N 30°29' E 122°17'0 0.0
2014-Aug-24 12:20N 30°29' E 122°17'0 0.0
2014-Aug-24 11:32N 30°29' E 122°17'0 0.0
2014-Aug-24 10:32N 30°29' E 122°17'0 0.0
2014-Aug-24 09:32N 30°29' E 122°17'0 0.0
2014-Aug-24 08:26N 30°29' E 122°17'0 0.0
2014-Aug-24 07:26N 30°29' E 122°17'0 0.0
2014-Aug-24 06:33N 30°29' E 122°17'0 0.0
2014-Aug-24 05:26N 30°29' E 122°17'0 0.0
2014-Aug-24 04:31N 30°29' E 122°17'0 0.0
2014-Aug-24 03:25N 30°29' E 122°17'0 0.0
2014-Aug-24 02:31N 30°29' E 122°17'0 0.0
2014-Aug-24 01:19N 30°29' E 122°17'0 0.0
2014-Aug-24 00:31N 30°29' E 122°17'0 0.0
2014-Aug-23 23:31N 30°29' E 122°17'0 0.0
2014-Aug-23 22:31N 30°29' E 122°17'0 0.0
2014-Aug-23 21:25N 30°29' E 122°17'0 0.0
2014-Aug-23 20:25N 30°29' E 122°17'0 0.0
2014-Aug-23 19:13N 30°29' E 122°17'0 0.0
2014-Aug-23 00:30N 30°29' E 122°17'0 0.0
2014-Aug-22 23:24N 30°29' E 122°17'0 0.0
2014-Aug-22 22:24N 30°29' E 122°17'0 0.0
2014-Aug-22 21:12N 30°29' E 122°17'0 0.0
2014-Aug-22 20:30N 30°29' E 122°17'0 0.1
2014-Aug-22 19:30N 30°29' E 122°17'0 0.1
2014-Aug-22 18:30N 30°29' E 122°17'0 0.0
2014-Aug-22 17:24N 30°29' E 122°17'0 0.0
2014-Aug-22 16:30N 30°29' E 122°17'0 0.0
2014-Aug-22 15:30N 30°29' E 122°17'0 0.0
2014-Aug-22 13:30N 30°29' E 122°17'0 0.0
2014-Aug-22 12:30N 30°29' E 122°17'0 0.0
2014-Aug-22 11:30N 30°29' E 122°17'0 0.0
2014-Aug-22 10:30N 30°29' E 122°17'0 0.0
2014-Aug-22 09:30N 30°29' E 122°17'0 0.0
2014-Aug-22 08:24N 30°29' E 122°17'0 0.0
2014-Aug-22 07:30N 30°29' E 122°17'0 0.0
2014-Aug-22 06:30N 30°29' E 122°17'0 0.0
2014-Aug-22 05:30N 30°29' E 122°17'0 0.0
2014-Aug-22 04:24N 30°29' E 122°17'0 0.0
2014-Aug-22 03:30N 30°29' E 122°17'0 0.0
2014-Aug-22 02:30N 30°29' E 122°17'0 0.0
2014-Aug-22 01:30N 30°29' E 122°17'0 0.0
2014-Aug-22 00:06N 30°29' E 122°17'0 0.0
2014-Aug-21 23:30N 30°29' E 122°17'0 0.0
2014-Aug-21 22:24N 30°29' E 122°17'0 0.0
2014-Aug-21 21:18N 30°29' E 122°17'0 0.0
2014-Aug-21 20:30N 30°29' E 122°17'0 0.0
2014-Aug-21 19:30N 30°29' E 122°17'0 0.0
2014-Aug-21 18:12N 30°29' E 122°17'0 0.0
2014-Aug-21 17:30N 30°29' E 122°17'0 0.0
2014-Aug-21 16:30N 30°29' E 122°17'0 0.0
2014-Aug-21 15:30N 30°29' E 122°17'0 0.0
2014-Aug-21 14:30N 30°29' E 122°17'0 0.0
2014-Aug-21 13:06N 30°29' E 122°17'0 0.0
2014-Aug-21 12:18N 30°29' E 122°17'0 0.0
2014-Aug-21 11:24N 30°29' E 122°17'0 0.0
2014-Aug-21 10:30N 30°29' E 122°17'0 0.0
2014-Aug-21 09:30N 30°29' E 122°17'0 0.0
2014-Aug-21 08:18N 30°29' E 122°17'0 0.0
2014-Aug-21 07:24N 30°29' E 122°17'0 0.0
2014-Aug-21 06:30N 30°29' E 122°17'0 0.0
2014-Aug-21 05:06N 30°29' E 122°17'0 0.0
2014-Aug-21 04:30N 30°29' E 122°17'0 0.0
2014-Aug-21 03:18N 30°29' E 122°17'0 0.0
2014-Aug-21 02:24N 30°29' E 122°17'0 0.0
2014-Aug-21 01:18N 30°29' E 122°17'0 0.0
2014-Aug-21 00:30N 30°29' E 122°17'0 0.0
2014-Aug-20 23:18N 30°29' E 122°17'0 0.0
2014-Aug-20 22:30N 30°29' E 122°17'0 0.0
2014-Aug-20 21:24N 30°29' E 122°17'  

Dump ship's entire track history